Time;durP1;ratioP1;P1;durP2;ratioP2;P2;SDS_P1;SDS_P2;PMS_P1;PMS_P2;Temp;Humidity;BMP_temperature;BMP_pressure;BME280_temperature;BME280_humidity;BME280_pressure;Samples;Min_cycle;Max_cycle;Signal;HPM_P1;HPM_P2
2021/04/30 00:01:05;;;;;;;;;;;;;;;;;;5021508;28;19952;-70
2021/04/30 00:03:31;;;;;;;;;;;;;;;;;;5014189;28;19916;-71
2021/04/30 00:05:57;;;;;;;;;;;;;;;;;;5012925;28;20365;-71
2021/04/30 00:08:23;;;;;;;;;;;;;;;;;;5014148;28;19968;-70
2021/04/30 00:10:49;;;;;;;;;;;;;;;;;;5012331;28;19913;-71
2021/04/30 00:13:14;;;;;;;;;;;;;;;;;;5014118;28;19909;-70
2021/04/30 00:15:40;;;;;;;;;;;;;;;;;;5013877;28;20359;-71
2021/04/30 00:18:06;;;;;;;;;;;;;;;;;;5013515;28;19914;-70
2021/04/30 00:20:35;;;;;;;;;;;;;;;;;;5013469;28;19917;-70
2021/04/30 00:23:01;;;;;;;;;;;;;;;;;;5013804;28;19909;-70
2021/04/30 00:25:29;;;;;;;;;;;;;;;;;;5013933;28;20386;-70
2021/04/30 00:27:55;;;;;;;;;;;;;;;;;;5012166;28;20345;-70
2021/04/30 00:30:21;;;;;;;;;;;;;;;;;;5013423;28;20007;-71
2021/04/30 00:32:47;;;;;;;;;;;;;;;;;;5012452;28;19916;-70
2021/04/30 00:35:13;;;;;;;;;;;;;;;;;;5013534;28;19926;-71
2021/04/30 00:37:38;;;;;;;;;;;;;;;;;;5012691;28;19920;-70
2021/04/30 00:40:04;;;;;;;;;;;;;;;;;;5012188;28;20000;-70
2021/04/30 00:42:30;;;;;;;;;;;;;;;;;;5013650;28;20007;-70
2021/04/30 00:44:59;;;;;;;;;;;;;;;;;;5013475;28;19928;-70
2021/04/30 00:47:25;;;;;;;;;;;;;;;;;;5013193;28;20268;-71
2021/04/30 00:49:51;;;;;;;;;;;;;;;;;;5013334;28;19916;-70
2021/04/30 00:52:17;;;;;;;;;;;;;;;;;;5013036;28;20338;-70
2021/04/30 00:54:42;;;;;;;;;;;;;;;;;;5011808;28;20021;-70
2021/04/30 00:57:11;;;;;;;;;;;;;;;;;;5012871;28;19914;-70
2021/04/30 00:59:36;;;;;;;;;;;;;;;;;;5032275;28;20432;-70
2021/04/30 01:02:02;;;;;;;;;;;;;;;;;;5032847;28;20382;-71
2021/04/30 01:04:28;;;;;;;;;;;;;;;;;;5023211;28;19914;-71
2021/04/30 01:06:54;;;;;;;;;;;;;;;;;;5012730;28;19949;-71
2021/04/30 01:09:20;;;;;;;;;;;;;;;;;;5012729;28;19916;-71
2021/04/30 01:11:46;;;;;;;;;;;;;;;;;;5011277;28;20319;-71
2021/04/30 01:14:11;;;;;;;;;;;;;;;;;;5013044;28;19917;-72
2021/04/30 01:16:37;;;;;;;;;;;;;;;;;;5012789;28;19913;-71
2021/04/30 01:19:03;;;;;;;;;;;;;;;;;;5012803;28;20013;-71
2021/04/30 01:21:29;;;;;;;;;;;;;;;;;;5012635;28;20411;-70
2021/04/30 01:23:55;;;;;;;;;;;;;;;;;;5012795;28;19968;-70
2021/04/30 01:26:21;;;;;;;;;;;;;;;;;;5013887;28;19971;-71
2021/04/30 01:28:47;;;;;;;;;;;;;;;;;;5012663;28;19921;-72
2021/04/30 01:31:12;;;;;;;;;;;;;;;;;;5012814;28;19913;-72
2021/04/30 01:33:38;;;;;;;;;;;;;;;;;;5012629;28;20000;-71
2021/04/30 01:36:04;;;;;;;;;;;;;;;;;;5013723;28;19913;-71
2021/04/30 01:38:30;;;;;;;;;;;;;;;;;;5012566;28;20367;-72
2021/04/30 01:40:56;;;;;;;;;;;;;;;;;;5012995;28;19910;-72
2021/04/30 01:43:24;;;;;;;;;;;;;;;;;;5012558;28;19925;-71
2021/04/30 01:45:53;;;;;;;;;;;;;;;;;;5012282;28;19914;-71
2021/04/30 01:48:18;;;;;;;;;;;;;;;;;;5011859;28;19980;-71
2021/04/30 01:50:47;;;;;;;;;;;;;;;;;;5010786;28;19913;-71
2021/04/30 01:53:13;;;;;;;;;;;;;;;;;;5012185;28;19960;-71
2021/04/30 01:55:38;;;;;;;;;;;;;;;;;;5012301;28;19925;-71
2021/04/30 01:58:04;;;;;;;;;;;;;;;;;;5018048;28;19914;-71
2021/04/30 02:00:30;;;;;;;;;;;;;;;;;;5032015;28;19963;-69
2021/04/30 02:02:56;;;;;;;;;;;;;;;;;;5022625;28;19914;-69
2021/04/30 02:05:22;;;;;;;;;;;;;;;;;;5012390;28;19924;-69
2021/04/30 02:07:50;;;;;;;;;;;;;;;;;;5011830;28;20318;-69
2021/04/30 02:10:16;;;;;;;;;;;;;;;;;;5012519;28;19910;-71
2021/04/30 02:12:42;;;;;;;;;;;;;;;;;;5012913;28;19960;-69
2021/04/30 02:15:09;;;;;;;;;;;;;;;;;;5014125;28;19914;-70
2021/04/30 02:17:35;;;;;;;;;;;;;;;;;;5026138;28;19941;-68
2021/04/30 02:20:01;;;;;;;;;;;;;;;;;;5030724;23;20440;-71
2021/04/30 02:22:27;;;;;;;;;;;;;;;;;;5004984;28;20007;-71
2021/04/30 02:24:53;;;;;;;;;;;;;;;;;;5002380;28;19936;-70
2021/04/30 02:27:19;;;;;;;;;;;;;;;;;;5018890;23;20413;-68
2021/04/30 02:29:44;;;;;;;;;;;;;;;;;;5008377;28;19963;-68
2021/04/30 02:32:10;;;;;;;;;;;;;;;;;;5009711;28;19968;-68
2021/04/30 02:34:36;;;;;;;;;;;;;;;;;;5010976;28;19918;-67
2021/04/30 02:37:02;;;;;;;;;;;;;;;;;;5008722;28;20365;-68
2021/04/30 02:39:28;;;;;;;;;;;;;;;;;;4991225;28;20421;-68
2021/04/30 02:41:54;;;;;;;;;;;;;;;;;;4987852;28;20374;-68
2021/04/30 02:44:20;;;;;;;;;;;;;;;;;;4983818;28;19910;-68
2021/04/30 02:46:45;;;;;;;;;;;;;;;;;;5011039;28;19913;-68
2021/04/30 02:49:15;;;;;;;;;;;;;;;;;;4990962;28;19920;-68
2021/04/30 02:51:40;;;;;;;;;;;;;;;;;;4991121;28;19929;-68
2021/04/30 02:54:06;;;;;;;;;;;;;;;;;;4991361;28;19910;-67
2021/04/30 02:56:32;;;;;;;;;;;;;;;;;;4991072;28;19964;-68
2021/04/30 02:58:58;;;;;;;;;;;;;;;;;;5005098;28;19921;-68
2021/04/30 03:01:24;;;;;;;;;;;;;;;;;;5003902;28;19913;-67
2021/04/30 03:03:50;;;;;;;;;;;;;;;;;;5014368;28;19917;-68
2021/04/30 03:06:16;;;;;;;;;;;;;;;;;;4998135;28;19914;-68
2021/04/30 03:08:41;;;;;;;;;;;;;;;;;;4994550;28;20368;-68
2021/04/30 03:11:07;;;;;;;;;;;;;;;;;;4994482;28;20297;-68
2021/04/30 03:13:33;;;;;;;;;;;;;;;;;;4994537;28;19914;-68
2021/04/30 03:15:59;;;;;;;;;;;;;;;;;;4994797;28;19957;-68
2021/04/30 03:18:25;;;;;;;;;;;;;;;;;;4994458;28;19913;-68
2021/04/30 03:20:51;;;;;;;;;;;;;;;;;;4994367;28;19988;-68
2021/04/30 03:23:17;;;;;;;;;;;;;;;;;;4994655;28;19917;-68
2021/04/30 03:25:42;;;;;;;;;;;;;;;;;;4994282;28;20396;-68
2021/04/30 03:28:08;;;;;;;;;;;;;;;;;;4998991;28;19922;-68
2021/04/30 03:30:34;;;;;;;;;;;;;;;;;;4994522;28;19957;-68
2021/04/30 03:33:00;;;;;;;;;;;;;;;;;;4997893;28;19910;-68
2021/04/30 03:35:26;;;;;;;;;;;;;;;;;;4994399;28;19924;-68
2021/04/30 03:37:52;;;;;;;;;;;;;;;;;;5006251;28;19913;-68
2021/04/30 03:40:18;;;;;;;;;;;;;;;;;;5013726;28;20391;-68
2021/04/30 03:42:43;;;;;;;;;;;;;;;;;;5013885;28;19909;-68
2021/04/30 03:45:09;;;;;;;;;;;;;;;;;;5013589;28;19925;-67
2021/04/30 03:47:35;;;;;;;;;;;;;;;;;;5008355;28;20384;-67
2021/04/30 03:50:01;;;;;;;;;;;;;;;;;;4993305;28;19914;-68
2021/04/30 03:52:27;;;;;;;;;;;;;;;;;;4994065;28;19972;-67
2021/04/30 03:54:53;;;;;;;;;;;;;;;;;;4993659;28;19965;-68
2021/04/30 03:57:19;;;;;;;;;;;;;;;;;;4994284;28;19914;-67
2021/04/30 03:59:44;;;;;;;;;;;;;;;;;;5013173;28;20008;-67
2021/04/30 04:02:10;;;;;;;;;;;;;;;;;;5013130;28;19909;-68
2021/04/30 04:04:36;;;;;;;;;;;;;;;;;;5013480;28;19914;-68
2021/04/30 04:07:04;;;;;;;;;;;;;;;;;;5005798;28;19914;-67
2021/04/30 04:09:30;;;;;;;;;;;;;;;;;;4993304;28;19946;-68
2021/04/30 04:11:56;;;;;;;;;;;;;;;;;;4993718;28;19909;-67
2021/04/30 04:14:22;;;;;;;;;;;;;;;;;;4973733;28;19910;-68
2021/04/30 04:16:47;;;;;;;;;;;;;;;;;;4978165;28;19917;-68
2021/04/30 04:19:17;;;;;;;;;;;;;;;;;;4992829;28;20270;-67
2021/04/30 04:21:43;;;;;;;;;;;;;;;;;;4993593;28;19920;-67
2021/04/30 04:24:08;;;;;;;;;;;;;;;;;;4993901;28;20277;-68
2021/04/30 04:26:34;;;;;;;;;;;;;;;;;;4992845;28;20098;-68
2021/04/30 04:29:01;;;;;;;;;;;;;;;;;;4993697;28;19910;-67
2021/04/30 04:31:27;;;;;;;;;;;;;;;;;;4992332;28;19917;-68
2021/04/30 04:33:52;;;;;;;;;;;;;;;;;;4993124;28;20340;-68
2021/04/30 04:36:18;;;;;;;;;;;;;;;;;;4988021;28;19917;-67
2021/04/30 04:38:44;;;;;;;;;;;;;;;;;;4986204;28;19920;-68
2021/04/30 04:41:10;;;;;;;;;;;;;;;;;;4980845;28;19914;-68
2021/04/30 04:43:36;;;;;;;;;;;;;;;;;;4983931;28;19910;-68
2021/04/30 04:46:02;;;;;;;;;;;;;;;;;;4982260;28;20370;-67
2021/04/30 04:48:27;;;;;;;;;;;;;;;;;;4977241;28;20263;-68
2021/04/30 04:50:53;;;;;;;;;;;;;;;;;;4977223;28;19910;-67
2021/04/30 04:53:19;;;;;;;;;;;;;;;;;;4982035;28;19957;-67
2021/04/30 04:55:45;;;;;;;;;;;;;;;;;;4981887;28;19914;-67
2021/04/30 04:58:11;;;;;;;;;;;;;;;;;;4994461;28;20361;-66
2021/04/30 05:00:37;;;;;;;;;;;;;;;;;;4982238;28;20005;-67
2021/04/30 05:03:03;;;;;;;;;;;;;;;;;;4981104;28;19991;-67
2021/04/30 05:05:28;;;;;;;;;;;;;;;;;;4991348;28;19937;-67
2021/04/30 05:07:54;;;;;;;;;;;;;;;;;;4983435;28;20313;-67
2021/04/30 05:10:20;;;;;;;;;;;;;;;;;;4991752;28;19918;-67
2021/04/30 05:12:46;;;;;;;;;;;;;;;;;;4992621;28;19967;-66
2021/04/30 05:15:12;;;;;;;;;;;;;;;;;;4992135;28;19971;-66
2021/04/30 05:17:38;;;;;;;;;;;;;;;;;;4991915;28;19980;-68
2021/04/30 05:20:06;;;;;;;;;;;;;;;;;;4991819;28;19921;-67
2021/04/30 05:22:32;;;;;;;;;;;;;;;;;;4992516;28;19940;-68
2021/04/30 05:24:58;;;;;;;;;;;;;;;;;;4981309;28;20385;-67
2021/04/30 05:27:24;;;;;;;;;;;;;;;;;;4982134;28;19933;-67
2021/04/30 05:29:50;;;;;;;;;;;;;;;;;;4984938;28;20068;-67
2021/04/30 05:32:17;;;;;;;;;;;;;;;;;;4983196;28;19918;-67
2021/04/30 05:34:43;;;;;;;;;;;;;;;;;;4982490;28;19926;-68
2021/04/30 05:37:09;;;;;;;;;;;;;;;;;;4987583;28;19913;-68
2021/04/30 05:39:35;;;;;;;;;;;;;;;;;;4986995;28;19918;-67
2021/04/30 05:42:00;;;;;;;;;;;;;;;;;;4987901;28;19914;-67
2021/04/30 05:44:26;;;;;;;;;;;;;;;;;;4981215;28;20004;-67
2021/04/30 05:46:52;;;;;;;;;;;;;;;;;;4981799;28;19918;-67
2021/04/30 05:49:18;;;;;;;;;;;;;;;;;;4977750;28;19937;-67
2021/04/30 05:51:44;;;;;;;;;;;;;;;;;;4973188;28;19984;-67
2021/04/30 05:54:10;;;;;;;;;;;;;;;;;;4976541;28;19914;-67
2021/04/30 05:56:36;;;;;;;;;;;;;;;;;;4981651;28;19929;-67
2021/04/30 05:59:02;;;;;;;;;;;;;;;;;;4982512;28;19957;-66
2021/04/30 06:01:27;;;;;;;;;;;;;;;;;;4981171;28;19914;-67
2021/04/30 06:03:53;;;;;;;;;;;;;;;;;;4981940;28;19917;-68
2021/04/30 06:06:19;;;;;;;;;;;;;;;;;;4991335;28;19917;-67
2021/04/30 06:08:45;;;;;;;;;;;;;;;;;;4991551;28;20016;-67
2021/04/30 06:11:11;;;;;;;;;;;;;;;;;;4991222;28;19914;-68
2021/04/30 06:13:37;;;;;;;;;;;;;;;;;;4989056;28;19914;-68
2021/04/30 06:16:03;;;;;;;;;;;;;;;;;;4990121;28;20548;-67
2021/04/30 06:18:28;;;;;;;;;;;;;;;;;;4982757;28;19921;-68
2021/04/30 06:20:54;;;;;;;;;;;;;;;;;;4982211;28;19917;-67
2021/04/30 06:23:20;;;;;;;;;;;;;;;;;;4984301;28;19929;-67
2021/04/30 06:25:46;;;;;;;;;;;;;;;;;;4981659;28;20496;-68
2021/04/30 06:28:12;;;;;;;;;;;;;;;;;;4984141;28;19922;-68
2021/04/30 06:30:38;;;;;;;;;;;;;;;;;;4983492;28;19918;-68
2021/04/30 06:33:04;;;;;;;;;;;;;;;;;;4989182;28;19918;-68
2021/04/30 06:35:30;;;;;;;;;;;;;;;;;;4987785;28;19914;-67
2021/04/30 06:37:56;;;;;;;;;;;;;;;;;;4992922;28;19914;-68
2021/04/30 06:40:22;;;;;;;;;;;;;;;;;;4985782;28;19929;-68
2021/04/30 06:42:47;;;;;;;;;;;;;;;;;;4983489;28;19916;-68
2021/04/30 06:45:13;;;;;;;;;;;;;;;;;;4984840;28;19918;-68
2021/04/30 06:47:39;;;;;;;;;;;;;;;;;;4989228;28;19922;-68
2021/04/30 06:50:05;;;;;;;;;;;;;;;;;;4994592;28;19936;-69
2021/04/30 06:52:31;;;;;;;;;;;;;;;;;;4990301;28;19909;-68
2021/04/30 06:54:57;;;;;;;;;;;;;;;;;;4991036;28;19918;-67
2021/04/30 06:57:23;;;;;;;;;;;;;;;;;;4991875;28;19913;-67
2021/04/30 06:59:49;;;;;;;;;;;;;;;;;;4989070;28;19918;-68
2021/04/30 07:02:14;;;;;;;;;;;;;;;;;;4990444;28;19932;-68
2021/04/30 07:04:40;;;;;;;;;;;;;;;;;;4984717;28;19917;-68
2021/04/30 07:07:06;;;;;;;;;;;;;;;;;;4987433;28;20443;-68
2021/04/30 07:09:32;;;;;;;;;;;;;;;;;;4986877;28;19913;-68
2021/04/30 07:11:58;;;;;;;;;;;;;;;;;;4983831;28;19911;-68
2021/04/30 07:14:24;;;;;;;;;;;;;;;;;;4985570;28;19918;-68
2021/04/30 07:16:50;;;;;;;;;;;;;;;;;;4985870;28;19914;-68
2021/04/30 07:19:16;;;;;;;;;;;;;;;;;;4988477;28;19917;-68
2021/04/30 07:21:42;;;;;;;;;;;;;;;;;;4979093;28;19918;-68
2021/04/30 07:24:07;;;;;;;;;;;;;;;;;;4986157;28;19922;-68
2021/04/30 07:26:33;;;;;;;;;;;;;;;;;;4987959;28;19949;-69
2021/04/30 07:28:59;;;;;;;;;;;;;;;;;;4983057;28;19929;-69
2021/04/30 07:31:25;;;;;;;;;;;;;;;;;;4986975;28;19920;-69
2021/04/30 07:33:51;;;;;;;;;;;;;;;;;;4986797;28;19921;-69
2021/04/30 07:36:17;;;;;;;;;;;;;;;;;;4984841;28;19914;-68
2021/04/30 07:38:45;;;;;;;;;;;;;;;;;;4983016;28;19910;-68
2021/04/30 07:41:11;;;;;;;;;;;;;;;;;;4990449;28;20317;-67
2021/04/30 07:43:37;;;;;;;;;;;;;;;;;;4991536;28;19923;-69
2021/04/30 07:46:03;;;;;;;;;;;;;;;;;;4986917;28;19914;-68
2021/04/30 07:48:29;;;;;;;;;;;;;;;;;;4987715;28;20290;-68
2021/04/30 07:50:55;;;;;;;;;;;;;;;;;;4981634;28;19910;-68
2021/04/30 07:53:21;;;;;;;;;;;;;;;;;;4987367;28;19921;-68
2021/04/30 07:55:47;;;;;;;;;;;;;;;;;;4985529;28;20444;-68
2021/04/30 07:58:12;;;;;;;;;;;;;;;;;;4992682;28;19918;-68
2021/04/30 08:00:38;;;;;;;;;;;;;;;;;;4989856;28;19973;-68
2021/04/30 08:03:04;;;;;;;;;;;;;;;;;;4990063;28;19922;-68
2021/04/30 08:05:30;;;;;;;;;;;;;;;;;;4987450;28;19914;-69
2021/04/30 08:07:59;;;;;;;;;;;;;;;;;;4985828;28;20313;-68
2021/04/30 08:10:25;;;;;;;;;;;;;;;;;;4992338;28;19922;-71
2021/04/30 08:12:51;;;;;;;;;;;;;;;;;;4992624;28;19961;-68
2021/04/30 08:15:17;;;;;;;;;;;;;;;;;;4993172;28;19913;-67
2021/04/30 08:17:43;;;;;;;;;;;;;;;;;;4993641;28;20377;-69
2021/04/30 08:20:09;;;;;;;;;;;;;;;;;;4992502;28;19910;-68
2021/04/30 08:22:35;;;;;;;;;;;;;;;;;;4992463;28;19914;-67
2021/04/30 08:25:01;;;;;;;;;;;;;;;;;;4984252;28;19960;-68
2021/04/30 08:30:02;;;;;;;;;;;;;;;;;;5009151;28;19929;-73
2021/04/30 08:32:28;;;;;;;;;;;;;;;;;;5010624;28;19920;-72
2021/04/30 08:34:54;;;;;;;;;;;;;;;;;;5012221;28;19917;-70
2021/04/30 08:37:20;;;;;;;;;;;;;;;;;;5017531;28;20433;-70
2021/04/30 08:39:46;;;;;;;;;;;;;;;;;;5012153;28;19927;-70
2021/04/30 08:42:12;;;;;;;;;;;;;;;;;;5012835;28;20394;-70
2021/04/30 08:44:38;;;;;;;;;;;;;;;;;;5008966;28;19924;-71
2021/04/30 08:47:03;;;;;;;;;;;;;;;;;;5004109;28;19914;-70
2021/04/30 08:49:29;;;;;;;;;;;;;;;;;;5012491;28;19917;-69
2021/04/30 08:51:55;;;;;;;;;;;;;;;;;;5010436;28;19922;-69
2021/04/30 08:54:21;;;;;;;;;;;;;;;;;;5011382;28;19923;-71
2021/04/30 08:56:51;;;;;;;;;;;;;;;;;;5011313;28;20322;-70
2021/04/30 08:59:17;;;;;;;;;;;;;;;;;;5010510;28;20713;-70
2021/04/30 09:01:44;;;;;;;;;;;;;;;;;;5011059;28;19910;-71
2021/04/30 09:04:11;;;;;;;;;;;;;;;;;;5010904;28;19967;-71
2021/04/30 09:06:37;;;;;;;;;;;;;;;;;;5011065;28;20146;-71
2021/04/30 09:09:03;;;;;;;;;;;;;;;;;;5010999;28;19910;-71
2021/04/30 09:11:28;;;;;;;;;;;;;;;;;;5007409;28;20083;-70
2021/04/30 09:13:54;;;;;;;;;;;;;;;;;;5002661;28;19918;-70
2021/04/30 09:16:20;;;;;;;;;;;;;;;;;;4999998;28;20313;-70
2021/04/30 09:18:46;;;;;;;;;;;;;;;;;;5009182;28;19940;-70
2021/04/30 09:21:12;;;;;;;;;;;;;;;;;;5006774;28;19917;-69
2021/04/30 09:23:38;;;;;;;;;;;;;;;;;;4995431;28;20309;-70
2021/04/30 09:26:04;;;;;;;;;;;;;;;;;;4997743;28;19927;-70
2021/04/30 09:28:30;;;;;;;;;;;;;;;;;;5006736;28;19924;-70
2021/04/30 09:30:56;;;;;;;;;;;;;;;;;;5003261;28;20464;-70
2021/04/30 09:33:23;;;;;;;;;;;;;;;;;;5002171;28;20372;-71
2021/04/30 09:35:48;;;;;;;;;;;;;;;;;;5002972;28;19924;-71
2021/04/30 09:38:14;;;;;;;;;;;;;;;;;;5010039;28;19914;-71
2021/04/30 09:40:40;;;;;;;;;;;;;;;;;;5006374;28;19921;-71
2021/04/30 09:43:06;;;;;;;;;;;;;;;;;;5008385;28;19996;-70
2021/04/30 09:45:32;;;;;;;;;;;;;;;;;;5010460;28;19993;-71
2021/04/30 09:47:59;;;;;;;;;;;;;;;;;;5009199;28;19917;-72
2021/04/30 09:50:25;;;;;;;;;;;;;;;;;;5009707;28;19913;-72
2021/04/30 09:52:51;;;;;;;;;;;;;;;;;;5004470;28;19914;-73
2021/04/30 09:55:17;;;;;;;;;;;;;;;;;;5009136;28;20048;-73
2021/04/30 09:57:42;;;;;;;;;;;;;;;;;;5006585;28;19952;-72
2021/04/30 10:00:10;;;;;;;;;;;;;;;;;;5009741;28;19968;-71
2021/04/30 10:02:37;;;;;;;;;;;;;;;;;;5008461;28;20520;-76
2021/04/30 10:05:05;;;;;;;;;;;;;;;;;;4996682;28;20404;-76
2021/04/30 10:07:31;;;;;;;;;;;;;;;;;;5007426;28;19910;-72
2021/04/30 10:09:57;;;;;;;;;;;;;;;;;;5010794;28;19914;-71
2021/04/30 10:12:23;;;;;;;;;;;;;;;;;;5009635;28;19914;-71
2021/04/30 10:14:49;;;;;;;;;;;;;;;;;;5004839;28;20438;-72
2021/04/30 10:17:15;;;;;;;;;;;;;;;;;;5012272;28;20056;-73
2021/04/30 10:19:40;;;;;;;;;;;;;;;;;;5014041;28;19913;-72
2021/04/30 10:22:06;;;;;;;;;;;;;;;;;;5012835;28;19929;-72
2021/04/30 10:24:35;;;;;;;;;;;;;;;;;;5005205;28;19918;-71
2021/04/30 10:27:00;;;;;;;;;;;;;;;;;;5008879;28;19924;-71
2021/04/30 10:29:26;;;;;;;;;;;;;;;;;;5013173;28;19994;-72
2021/04/30 10:31:55;;;;;;;;;;;;;;;;;;5011732;28;19918;-72
2021/04/30 10:34:21;;;;;;;;;;;;;;;;;;5013210;28;19964;-72
2021/04/30 10:36:49;;;;;;;;;;;;;;;;;;5012916;28;20417;-72
2021/04/30 10:39:15;;;;;;;;;;;;;;;;;;5013408;28;19924;-71
2021/04/30 10:41:44;;;;;;;3.37;2.63;;;;;;;;;;5012519;28;20401;-72
2021/04/30 10:44:28;;;;;;;2.90;1.50;;;;;;;;;;5013091;28;20515;-72
2021/04/30 10:47:09;;;;;;;2.33;1.40;;;;;;;;;;5000433;28;20416;-71
2021/04/30 10:49:36;;;;;;;2.73;2.00;;;;;;;;;;5009762;28;20407;-71
2021/04/30 10:52:09;;;;;;;3.10;2.17;;;;;;;;;;5004842;28;20410;-72
2021/04/30 10:54:39;;;;;;;2.50;2.30;;;;;;;;;;5008315;28;20491;-73
2021/04/30 10:57:05;;;;;;;3.17;1.90;;;;;;;;;;5005837;28;20482;-72
2021/04/30 10:59:40;;;;;;;3.50;2.57;;;;;;;;;;5012151;28;20454;-72
2021/04/30 11:02:12;;;;;;;2.40;1.67;;;;;;;;;;5007557;28;20507;-72
2021/04/30 11:04:39;;;;;;;1.40;1.30;;;;;;;;;;5013076;28;20375;-72
2021/04/30 11:07:09;;;;;;;5.33;1.80;;;;;;;;;;5011547;28;20383;-71
2021/04/30 11:09:37;;;;;;;1.83;1.73;;;;;;;;;;5006956;28;20408;-71
2021/04/30 11:12:18;;;;;;;1.90;1.43;;;;;;;;;;5007230;28;20390;-71
2021/04/30 11:14:59;;;;;;;1.83;1.40;;;;;;;;;;5007477;28;20393;-72
2021/04/30 11:17:47;;;;;;;2.53;1.73;;;;;;;;;;5013109;28;20433;-72
2021/04/30 11:20:17;;;;;;;2.30;1.60;;;;;;;;;;5011457;28;20411;-72
2021/04/30 11:22:43;;;;;;;1.33;1.23;;;;;;;;;;5003208;28;20877;-73
2021/04/30 11:25:15;;;;;;;1.87;1.33;;;;;;;;;;5012508;28;20779;-72
2021/04/30 11:27:41;;;;;;;1.93;1.83;;;;;;;;;;5012459;28;20403;-73
2021/04/30 11:30:20;;;;;;;1.63;1.53;;;;;;;;;;5011737;28;20404;-73
2021/04/30 11:32:53;;;;;;;2.67;1.80;;;;;;;;;;5009991;28;20422;-73
2021/04/30 11:35:19;;;;;;;1.73;1.00;;;;;;;;;;5009963;28;20426;-72
2021/04/30 11:37:48;;;;;;;1.57;1.07;;;;;;;;;;5012103;28;20383;-73
2021/04/30 11:40:14;;;;;;;1.50;1.37;;;;;;;;;;5001771;28;20566;-73
2021/04/30 11:42:40;;;;;;;0.90;0.80;;;;;;;;;;5008348;28;20482;-73
2021/04/30 11:45:06;;;;;;;1.43;1.27;;;;;;;;;;5014101;28;20390;-73
2021/04/30 11:47:34;;;;;;;2.37;1.13;;;;;;;;;;5004928;28;20855;-73
2021/04/30 11:50:00;;;;;;;1.63;0.90;;;;;;;;;;5007340;28;20501;-72
2021/04/30 11:52:30;;;;;;;1.40;1.20;;;;;;;;;;5006351;28;20412;-73
2021/04/30 11:55:04;;;;;;;1.33;1.23;;;;;;;;;;5011708;28;20803;-72
2021/04/30 11:57:30;;;;;;;2.03;1.63;;;;;;;;;;5007724;28;20409;-73
2021/04/30 11:59:59;;;;;;;1.73;0.80;;;;;;;;;;5016882;28;20437;-74
2021/04/30 12:02:26;;;;;;;2.43;1.13;;;;;;;;;;5003587;28;20391;-74
2021/04/30 12:04:54;;;;;;;2.50;1.63;;;;;;;;;;5018945;28;20493;-74
2021/04/30 12:07:23;;;;;;;3.53;2.33;;;;;;;;;;5013983;28;20478;-75
2021/04/30 12:09:50;;;;;;;14.73;13.43;;;;;;;;;;5014595;28;20976;-73
2021/04/30 12:12:17;;;;;;;2.30;1.80;;;;;;;;;;5018155;28;20427;-73
2021/04/30 12:15:02;;;;;;;2.50;1.63;;;;;;;;;;5005856;28;20395;-74
2021/04/30 12:17:28;;;;;;;2.27;1.13;;;;;;;;;;5007910;28;20472;-73
2021/04/30 12:19:57;;;;;;;2.33;1.97;;;;;;;;;;5014792;28;20433;-73
2021/04/30 12:22:23;;;;;;;2.80;1.17;;;;;;;;;;5006041;28;20463;-72
2021/04/30 12:24:49;;;;;;;1.47;0.80;;;;;;;;;;5009901;28;20411;-72
2021/04/30 12:27:27;;;;;;;2.73;1.73;;;;;;;;;;5013339;28;20462;-73
2021/04/30 12:29:53;;;;;;;2.63;1.47;;;;;;;;;;5012992;28;20487;-73
2021/04/30 12:32:26;;;;;;;1.10;0.70;;;;;;;;;;5014209;28;20438;-71
2021/04/30 12:34:53;;;;;;;1.30;1.00;;;;;;;;;;5012959;28;20924;-73
2021/04/30 12:37:20;;;;;;;2.17;1.20;;;;;;;;;;5012424;28;20422;-72
2021/04/30 12:39:47;;;;;;;2.23;1.27;;;;;;;;;;5007624;28;20432;-71
2021/04/30 12:42:13;;;;;;;1.63;1.53;;;;;;;;;;5012424;28;20392;-73
2021/04/30 12:44:48;;;;;;;1.57;1.47;;;;;;;;;;5012670;28;20424;-73
2021/04/30 12:47:17;;;;;;;1.60;1.30;;;;;;;;;;5012689;28;20575;-73
2021/04/30 12:49:45;;;;;;;1.97;1.77;;;;;;;;;;5013332;28;20429;-75
2021/04/30 12:52:12;;;;;;;3.13;1.40;;;;;;;;;;5012839;28;20396;-74
2021/04/30 12:54:37;;;;;;;1.33;1.23;;;;;;;;;;5011174;28;20471;-74
2021/04/30 12:57:08;;;;;;;3.13;2.50;;;;;;;;;;5011388;28;20395;-74
2021/04/30 12:59:34;;;;;;;3.00;2.10;;;;;;;;;;5019328;28;20436;-75
2021/04/30 13:02:14;;;;;;;2.33;1.73;;;;;;;;;;5000273;28;20890;-75
2021/04/30 13:04:45;;;;;;;4.53;2.23;;;;;;;;;;4995084;28;20400;-75
2021/04/30 13:07:12;;;;;;;4.37;4.00;;;;;;;;;;5008336;28;20432;-73
2021/04/30 13:09:40;;;;;;;1.67;1.57;;;;;;;;;;5010456;28;20430;-73
2021/04/30 13:12:08;;;;;;;1.10;0.90;;;;;;;;;;5005316;28;20388;-74
2021/04/30 13:14:44;;;;;;;3.70;1.07;;;;;;;;;;5006656;28;21068;-74
2021/04/30 13:17:20;;;;;;;1.23;1.00;;;;;;;;;;5011917;28;20510;-76
2021/04/30 13:19:47;;;;;;;1.10;0.70;;;;;;;;;;5034342;28;20455;-75
2021/04/30 13:22:14;;;;;;;1.33;1.10;;;;;;;;;;5011095;28;20394;-75
2021/04/30 13:24:40;;;;;;;4.70;1.97;;;;;;;;;;5006181;28;20433;-74
2021/04/30 13:27:11;;;;;;;1.63;1.30;;;;;;;;;;5001550;28;20419;-75
2021/04/30 13:29:41;;;;;;;2.60;1.60;;;;;;;;;;5007700;28;20491;-75
2021/04/30 13:32:08;;;;;;;71.00;63.90;;;;;;;;;;5012668;28;20404;-75
2021/04/30 13:34:45;;;;;;;26.03;23.13;;;;;;;;;;5012343;28;20421;-75
2021/04/30 13:37:18;;;;;;;221.77;192.30;;;;;;;;;;5011140;28;20411;-75
2021/04/30 13:39:46;;;;;;;1.00;0.90;;;;;;;;;;5012250;28;20420;-75
2021/04/30 13:42:16;;;;;;;1.27;1.17;;;;;;;;;;5003876;28;20394;-75
2021/04/30 13:44:47;;;;;;;2.80;2.27;;;;;;;;;;5005336;28;20404;-76
2021/04/30 13:47:15;;;;;;;2.50;1.67;;;;;;;;;;5002623;28;20375;-75
2021/04/30 13:49:48;;;;;;;1.93;1.80;;;;;;;;;;5006751;28;20437;-75
2021/04/30 13:52:15;;;;;;;3.80;2.60;;;;;;;;;;5008474;28;20371;-76
2021/04/30 13:54:41;;;;;;;0.83;0.77;;;;;;;;;;5009382;28;20442;-75
2021/04/30 13:57:07;;;;;;;2.17;1.70;;;;;;;;;;4995154;28;20389;-76
2021/04/30 13:59:38;;;;;;;2.60;1.73;;;;;;;;;;5014261;28;20425;-75
2021/04/30 14:02:05;;;;;;;1.90;1.70;;;;;;;;;;5011717;28;20388;-75
2021/04/30 14:04:31;;;;;;;4.07;2.40;;;;;;;;;;5009169;28;21393;-76
2021/04/30 14:06:57;;;;;;;4.43;1.50;;;;;;;;;;5002883;28;20424;-76
2021/04/30 14:09:24;;;;;;;1.70;1.53;;;;;;;;;;4999576;28;20762;-76
2021/04/30 14:11:52;;;;;;;2.50;2.23;;;;;;;;;;5002135;28;20394;-75
2021/04/30 14:14:19;;;;;;;2.90;1.67;;;;;;;;;;5012920;28;20399;-75
2021/04/30 14:16:44;;;;;;;2.07;1.73;;;;;;;;;;5013440;28;20460;-75
2021/04/30 14:19:13;;;;;;;1.27;1.17;;;;;;;;;;5019875;23;20459;-75
2021/04/30 14:21:39;;;;;;;1.00;0.90;;;;;;;;;;5008641;28;20891;-73
2021/04/30 14:24:05;;;;;;;2.30;1.50;;;;;;;;;;5010404;28;20872;-73
2021/04/30 14:26:33;;;;;;;1.53;1.43;;;;;;;;;;5010998;28;20407;-73
2021/04/30 14:28:59;;;;;;;2.20;1.87;;;;;;;;;;5037602;22;20496;-68
2021/04/30 14:31:25;;;;;;;2.20;1.70;;;;;;;;;;5012982;28;20386;-70
2021/04/30 14:33:51;;;;;;;2.70;1.27;;;;;;;;;;5014691;28;20875;-70
2021/04/30 14:36:17;;;;;;;3.70;1.67;;;;;;;;;;5013672;28;20451;-69
2021/04/30 14:38:43;;;;;;;2.00;1.77;;;;;;;;;;5013020;28;20925;-70
2021/04/30 14:41:09;;;;;;;1.47;1.37;;;;;;;;;;5006389;28;20376;-69
2021/04/30 14:43:36;;;;;;;1.70;1.60;;;;;;;;;;5013090;28;20492;-69
2021/04/30 14:46:02;;;;;;;8.23;1.20;;;;;;;;;;5007078;28;20401;-68
2021/04/30 14:48:28;;;;;;;1.17;1.07;;;;;;;;;;5007183;28;20417;-67
2021/04/30 14:50:54;;;;;;;1.30;1.17;;;;;;;;;;5001770;28;20394;-67
2021/04/30 14:53:20;;;;;;;1.27;1.17;;;;;;;;;;5004192;28;20396;-68
2021/04/30 14:55:47;;;;;;;2.90;2.30;;;;;;;;;;5004571;28;20952;-68
2021/04/30 14:58:14;;;;;;;1.93;1.30;;;;;;;;;;5011238;28;20786;-69
2021/04/30 15:00:40;;;;;;;6.27;2.50;;;;;;;;;;5015650;28;20486;-68
2021/04/30 15:03:06;;;;;;;3.07;2.87;;;;;;;;;;5008668;28;20897;-67
2021/04/30 15:05:32;;;;;;;1.80;1.43;;;;;;;;;;5007176;28;20396;-69
2021/04/30 15:07:59;;;;;;;3.73;1.57;;;;;;;;;;5010968;28;20376;-69
2021/04/30 15:10:25;;;;;;;2.53;1.70;;;;;;;;;;5010241;28;20535;-69
2021/04/30 15:12:51;;;;;;;1.70;1.33;;;;;;;;;;5015855;28;20425;-71
2021/04/30 15:15:17;;;;;;;1.87;1.63;;;;;;;;;;5008906;28;20501;-70
2021/04/30 15:17:43;;;;;;;2.00;1.80;;;;;;;;;;5005739;28;20477;-68
2021/04/30 15:20:09;;;;;;;5.67;1.80;;;;;;;;;;5009455;28;20479;-70
2021/04/30 15:22:37;;;;;;;2.43;2.23;;;;;;;;;;5013834;28;20475;-69
2021/04/30 15:25:03;;;;;;;3.50;2.33;;;;;;;;;;5009724;28;20426;-66
2021/04/30 15:27:29;;;;;;;1.93;1.57;;;;;;;;;;5013447;28;20411;-69
2021/04/30 15:29:55;;;;;;;7.67;4.50;;;;;;;;;;5007999;28;20444;-70
2021/04/30 15:32:21;;;;;;;2.00;1.70;;;;;;;;;;5017675;28;20395;-68
2021/04/30 15:34:48;;;;;;;1.60;1.10;;;;;;;;;;5011800;28;20475;-70
2021/04/30 15:37:14;;;;;;;2.57;1.80;;;;;;;;;;5009920;28;20408;-70
2021/04/30 15:39:40;;;;;;;2.93;1.57;;;;;;;;;;5012110;28;20851;-76
2021/04/30 15:42:06;;;;;;;5.60;1.70;;;;;;;;;;5015042;28;20822;-68
2021/04/30 15:44:32;;;;;;;5.10;4.80;;;;;;;;;;5016407;28;20516;-69
2021/04/30 15:46:59;;;;;;;1.10;1.00;;;;;;;;;;5014326;28;20789;-70
2021/04/30 15:49:28;;;;;;;2.60;1.70;;;;;;;;;;5018950;28;20428;-69
2021/04/30 15:51:55;;;;;;;19.23;1.90;;;;;;;;;;5012846;28;20772;-70
2021/04/30 15:54:21;;;;;;;1.10;0.87;;;;;;;;;;5017373;28;20394;-68
2021/04/30 15:56:47;;;;;;;4.60;1.97;;;;;;;;;;5013592;28;20431;-70
2021/04/30 15:59:13;;;;;;;1.53;1.37;;;;;;;;;;5012098;28;20444;-70
2021/04/30 16:01:39;;;;;;;3.00;1.73;;;;;;;;;;5012816;28;20399;-71